sensor_id;sensor_type;location;lat;lon;timestamp;P1;durP1;ratioP1;P2;durP2;ratioP2
42098;SDS011;27758;55.900;8.516;2023-05-07T00:00:45;8.13;;;2.72;;
42098;SDS011;27758;55.900;8.516;2023-05-07T00:03:10;5.88;;;2.40;;
42098;SDS011;27758;55.900;8.516;2023-05-07T00:05:38;7.82;;;3.00;;
42098;SDS011;27758;55.900;8.516;2023-05-07T00:08:04;8.93;;;2.97;;
42098;SDS011;27758;55.900;8.516;2023-05-07T00:10:30;9.70;;;2.58;;
42098;SDS011;27758;55.900;8.516;2023-05-07T00:12:55;9.05;;;2.45;;
42098;SDS011;27758;55.900;8.516;2023-05-07T00:15:21;10.00;;;3.08;;
42098;SDS011;27758;55.900;8.516;2023-05-07T00:17:47;4.63;;;2.60;;
42098;SDS011;27758;55.900;8.516;2023-05-07T00:20:15;7.18;;;2.78;;
42098;SDS011;27758;55.900;8.516;2023-05-07T00:22:40;6.78;;;3.38;;
42098;SDS011;27758;55.900;8.516;2023-05-07T00:25:06;6.22;;;2.63;;
42098;SDS011;27758;55.900;8.516;2023-05-07T00:27:32;7.30;;;2.70;;
42098;SDS011;27758;55.900;8.516;2023-05-07T00:29:58;8.45;;;3.05;;
42098;SDS011;27758;55.900;8.516;2023-05-07T00:32:24;11.88;;;3.40;;
42098;SDS011;27758;55.900;8.516;2023-05-07T00:34:49;8.38;;;3.22;;
42098;SDS011;27758;55.900;8.516;2023-05-07T00:37:16;7.03;;;2.38;;
42098;SDS011;27758;55.900;8.516;2023-05-07T00:39:41;7.75;;;3.20;;
42098;SDS011;27758;55.900;8.516;2023-05-07T00:42:07;8.50;;;2.90;;
42098;SDS011;27758;55.900;8.516;2023-05-07T00:44:33;9.00;;;3.25;;
42098;SDS011;27758;55.900;8.516;2023-05-07T00:46:58;9.82;;;2.55;;
42098;SDS011;27758;55.900;8.516;2023-05-07T00:49:36;7.72;;;3.28;;
42098;SDS011;27758;55.900;8.516;2023-05-07T00:52:07;7.00;;;2.80;;
42098;SDS011;27758;55.900;8.516;2023-05-07T00:54:36;10.00;;;2.92;;
42098;SDS011;27758;55.900;8.516;2023-05-07T00:57:03;5.63;;;3.05;;
42098;SDS011;27758;55.900;8.516;2023-05-07T00:59:30;7.35;;;3.28;;
42098;SDS011;27758;55.900;8.516;2023-05-07T01:01:56;5.43;;;2.65;;
42098;SDS011;27758;55.900;8.516;2023-05-07T01:04:22;8.25;;;2.90;;
42098;SDS011;27758;55.900;8.516;2023-05-07T01:06:48;7.35;;;2.95;;
42098;SDS011;27758;55.900;8.516;2023-05-07T01:09:17;9.32;;;3.10;;
42098;SDS011;27758;55.900;8.516;2023-05-07T01:11:45;6.35;;;3.13;;
42098;SDS011;27758;55.900;8.516;2023-05-07T01:14:11;8.50;;;2.95;;
42098;SDS011;27758;55.900;8.516;2023-05-07T01:16:37;9.60;;;3.67;;
42098;SDS011;27758;55.900;8.516;2023-05-07T01:19:03;10.57;;;2.90;;
42098;SDS011;27758;55.900;8.516;2023-05-07T01:21:29;8.63;;;2.70;;
42098;SDS011;27758;55.900;8.516;2023-05-07T01:23:58;7.30;;;3.60;;
42098;SDS011;27758;55.900;8.516;2023-05-07T01:26:24;15.80;;;4.00;;
42098;SDS011;27758;55.900;8.516;2023-05-07T01:28:49;11.82;;;3.25;;
42098;SDS011;27758;55.900;8.516;2023-05-07T01:31:15;8.30;;;3.60;;
42098;SDS011;27758;55.900;8.516;2023-05-07T01:33:42;6.85;;;2.80;;
42098;SDS011;27758;55.900;8.516;2023-05-07T01:36:11;10.02;;;3.13;;
42098;SDS011;27758;55.900;8.516;2023-05-07T01:38:38;13.95;;;3.85;;
42098;SDS011;27758;55.900;8.516;2023-05-07T01:41:06;7.93;;;3.10;;
42098;SDS011;27758;55.900;8.516;2023-05-07T01:43:32;8.95;;;3.10;;
42098;SDS011;27758;55.900;8.516;2023-05-07T01:45:58;9.25;;;3.83;;
42098;SDS011;27758;55.900;8.516;2023-05-07T01:48:26;8.90;;;3.40;;
42098;SDS011;27758;55.900;8.516;2023-05-07T01:50:52;8.98;;;3.95;;
42098;SDS011;27758;55.900;8.516;2023-05-07T01:53:18;15.77;;;4.10;;
42098;SDS011;27758;55.900;8.516;2023-05-07T01:55:44;9.90;;;3.60;;
42098;SDS011;27758;55.900;8.516;2023-05-07T01:58:10;11.15;;;3.78;;
42098;SDS011;27758;55.900;8.516;2023-05-07T02:00:36;8.57;;;3.50;;
42098;SDS011;27758;55.900;8.516;2023-05-07T02:03:01;10.98;;;3.90;;
42098;SDS011;27758;55.900;8.516;2023-05-07T02:05:27;7.75;;;3.67;;
42098;SDS011;27758;55.900;8.516;2023-05-07T02:07:53;9.20;;;4.18;;
42098;SDS011;27758;55.900;8.516;2023-05-07T02:10:18;7.70;;;3.50;;
42098;SDS011;27758;55.900;8.516;2023-05-07T02:12:44;8.93;;;3.75;;
42098;SDS011;27758;55.900;8.516;2023-05-07T02:15:10;12.98;;;4.05;;
42098;SDS011;27758;55.900;8.516;2023-05-07T02:17:39;8.35;;;3.28;;
42098;SDS011;27758;55.900;8.516;2023-05-07T02:20:27;9.63;;;3.67;;
42098;SDS011;27758;55.900;8.516;2023-05-07T02:22:53;9.60;;;4.22;;
42098;SDS011;27758;55.900;8.516;2023-05-07T02:25:19;10.77;;;4.03;;
42098;SDS011;27758;55.900;8.516;2023-05-07T02:27:47;10.05;;;3.65;;
42098;SDS011;27758;55.900;8.516;2023-05-07T02:30:13;10.30;;;3.85;;
42098;SDS011;27758;55.900;8.516;2023-05-07T02:32:39;6.38;;;3.90;;
42098;SDS011;27758;55.900;8.516;2023-05-07T02:35:05;12.13;;;4.95;;
42098;SDS011;27758;55.900;8.516;2023-05-07T02:37:31;8.20;;;3.80;;
42098;SDS011;27758;55.900;8.516;2023-05-07T02:39:57;15.63;;;4.72;;
42098;SDS011;27758;55.900;8.516;2023-05-07T02:42:23;10.82;;;3.90;;
42098;SDS011;27758;55.900;8.516;2023-05-07T02:44:48;12.77;;;4.90;;
42098;SDS011;27758;55.900;8.516;2023-05-07T02:47:17;12.07;;;4.85;;
42098;SDS011;27758;55.900;8.516;2023-05-07T02:49:42;10.23;;;4.55;;
42098;SDS011;27758;55.900;8.516;2023-05-07T02:52:08;11.60;;;4.75;;
42098;SDS011;27758;55.900;8.516;2023-05-07T02:54:34;14.55;;;5.15;;
42098;SDS011;27758;55.900;8.516;2023-05-07T02:56:59;9.63;;;4.35;;
42098;SDS011;27758;55.900;8.516;2023-05-07T02:59:26;14.50;;;4.47;;
42098;SDS011;27758;55.900;8.516;2023-05-07T03:01:51;15.30;;;4.85;;
42098;SDS011;27758;55.900;8.516;2023-05-07T03:04:17;11.45;;;4.82;;
42098;SDS011;27758;55.900;8.516;2023-05-07T03:06:43;13.82;;;5.05;;
42098;SDS011;27758;55.900;8.516;2023-05-07T03:09:08;11.85;;;5.28;;
42098;SDS011;27758;55.900;8.516;2023-05-07T03:11:34;10.70;;;4.68;;
42098;SDS011;27758;55.900;8.516;2023-05-07T03:14:00;9.45;;;4.65;;
42098;SDS011;27758;55.900;8.516;2023-05-07T03:16:26;13.70;;;4.43;;
42098;SDS011;27758;55.900;8.516;2023-05-07T03:18:52;12.05;;;4.60;;
42098;SDS011;27758;55.900;8.516;2023-05-07T03:21:18;15.55;;;5.25;;
42098;SDS011;27758;55.900;8.516;2023-05-07T03:23:44;11.80;;;5.15;;
42098;SDS011;27758;55.900;8.516;2023-05-07T03:26:10;12.63;;;4.85;;
42098;SDS011;27758;55.900;8.516;2023-05-07T03:28:36;15.00;;;5.57;;
42098;SDS011;27758;55.900;8.516;2023-05-07T03:31:02;12.60;;;5.13;;
42098;SDS011;27758;55.900;8.516;2023-05-07T03:33:28;10.13;;;5.05;;
42098;SDS011;27758;55.900;8.516;2023-05-07T03:35:53;10.57;;;5.05;;
42098;SDS011;27758;55.900;8.516;2023-05-07T03:38:25;13.45;;;5.25;;
42098;SDS011;27758;55.900;8.516;2023-05-07T03:40:51;12.65;;;4.65;;
42098;SDS011;27758;55.900;8.516;2023-05-07T03:43:17;10.68;;;5.30;;
42098;SDS011;27758;55.900;8.516;2023-05-07T03:45:42;10.45;;;4.93;;
42098;SDS011;27758;55.900;8.516;2023-05-07T03:48:08;15.63;;;6.07;;
42098;SDS011;27758;55.900;8.516;2023-05-07T03:50:34;16.52;;;4.97;;
42098;SDS011;27758;55.900;8.516;2023-05-07T03:53:00;12.88;;;5.75;;
42098;SDS011;27758;55.900;8.516;2023-05-07T03:55:25;10.82;;;5.88;;
42098;SDS011;27758;55.900;8.516;2023-05-07T03:57:51;10.32;;;5.22;;
42098;SDS011;27758;55.900;8.516;2023-05-07T04:00:17;13.63;;;6.30;;
42098;SDS011;27758;55.900;8.516;2023-05-07T04:02:45;14.90;;;4.95;;
42098;SDS011;27758;55.900;8.516;2023-05-07T04:05:10;12.25;;;5.00;;
42098;SDS011;27758;55.900;8.516;2023-05-07T04:07:37;10.70;;;5.20;;
42098;SDS011;27758;55.900;8.516;2023-05-07T04:10:03;12.15;;;5.13;;
42098;SDS011;27758;55.900;8.516;2023-05-07T04:12:29;16.13;;;5.88;;
42098;SDS011;27758;55.900;8.516;2023-05-07T04:14:54;14.20;;;4.97;;
42098;SDS011;27758;55.900;8.516;2023-05-07T04:17:20;14.98;;;6.40;;
42098;SDS011;27758;55.900;8.516;2023-05-07T04:19:46;12.82;;;6.05;;
42098;SDS011;27758;55.900;8.516;2023-05-07T04:22:12;16.63;;;6.15;;
42098;SDS011;27758;55.900;8.516;2023-05-07T04:24:37;11.23;;;5.82;;
42098;SDS011;27758;55.900;8.516;2023-05-07T04:27:03;13.25;;;6.07;;
42098;SDS011;27758;55.900;8.516;2023-05-07T04:29:29;17.33;;;6.00;;
42098;SDS011;27758;55.900;8.516;2023-05-07T04:31:59;11.93;;;6.00;;
42098;SDS011;27758;55.900;8.516;2023-05-07T04:34:25;14.77;;;5.63;;
42098;SDS011;27758;55.900;8.516;2023-05-07T04:36:50;20.88;;;12.07;;
42098;SDS011;27758;55.900;8.516;2023-05-07T04:39:16;15.80;;;8.57;;
42098;SDS011;27758;55.900;8.516;2023-05-07T04:41:42;14.00;;;7.13;;
42098;SDS011;27758;55.900;8.516;2023-05-07T04:44:08;18.85;;;6.10;;
42098;SDS011;27758;55.900;8.516;2023-05-07T04:46:34;18.85;;;6.80;;
42098;SDS011;27758;55.900;8.516;2023-05-07T04:49:00;15.70;;;5.72;;
42098;SDS011;27758;55.900;8.516;2023-05-07T04:51:25;12.70;;;6.03;;
42098;SDS011;27758;55.900;8.516;2023-05-07T04:53:51;12.40;;;5.57;;
42098;SDS011;27758;55.900;8.516;2023-05-07T04:56:17;14.80;;;6.60;;
42098;SDS011;27758;55.900;8.516;2023-05-07T04:58:42;13.80;;;6.57;;
42098;SDS011;27758;55.900;8.516;2023-05-07T05:01:08;15.55;;;7.13;;
42098;SDS011;27758;55.900;8.516;2023-05-07T05:03:34;16.75;;;7.10;;
42098;SDS011;27758;55.900;8.516;2023-05-07T05:06:05;11.82;;;5.88;;
42098;SDS011;27758;55.900;8.516;2023-05-07T05:08:31;16.48;;;6.07;;
42098;SDS011;27758;55.900;8.516;2023-05-07T05:10:56;14.35;;;5.65;;
42098;SDS011;27758;55.900;8.516;2023-05-07T05:13:23;10.55;;;5.10;;
42098;SDS011;27758;55.900;8.516;2023-05-07T05:15:48;13.25;;;5.80;;
42098;SDS011;27758;55.900;8.516;2023-05-07T05:18:17;13.50;;;5.20;;
42098;SDS011;27758;55.900;8.516;2023-05-07T05:20:43;20.73;;;6.22;;
42098;SDS011;27758;55.900;8.516;2023-05-07T05:23:09;14.90;;;6.60;;
42098;SDS011;27758;55.900;8.516;2023-05-07T05:25:34;14.00;;;5.47;;
42098;SDS011;27758;55.900;8.516;2023-05-07T05:28:00;17.40;;;5.82;;
42098;SDS011;27758;55.900;8.516;2023-05-07T05:30:26;14.20;;;5.82;;
42098;SDS011;27758;55.900;8.516;2023-05-07T05:32:52;11.85;;;5.70;;
42098;SDS011;27758;55.900;8.516;2023-05-07T05:35:18;14.50;;;6.20;;
42098;SDS011;27758;55.900;8.516;2023-05-07T05:37:45;14.18;;;5.90;;
42098;SDS011;27758;55.900;8.516;2023-05-07T05:40:11;15.10;;;6.68;;
42098;SDS011;27758;55.900;8.516;2023-05-07T05:42:37;12.02;;;6.15;;
42098;SDS011;27758;55.900;8.516;2023-05-07T05:45:03;13.98;;;6.05;;
42098;SDS011;27758;55.900;8.516;2023-05-07T05:47:29;16.58;;;6.38;;
42098;SDS011;27758;55.900;8.516;2023-05-07T05:49:54;15.30;;;6.18;;
42098;SDS011;27758;55.900;8.516;2023-05-07T05:52:20;13.02;;;6.22;;
42098;SDS011;27758;55.900;8.516;2023-05-07T05:54:48;14.73;;;6.68;;
42098;SDS011;27758;55.900;8.516;2023-05-07T05:57:14;12.82;;;6.57;;
42098;SDS011;27758;55.900;8.516;2023-05-07T05:59:40;12.85;;;7.10;;
42098;SDS011;27758;55.900;8.516;2023-05-07T06:02:06;12.93;;;6.10;;
42098;SDS011;27758;55.900;8.516;2023-05-07T06:04:34;16.05;;;6.57;;
42098;SDS011;27758;55.900;8.516;2023-05-07T06:07:00;14.70;;;6.78;;
42098;SDS011;27758;55.900;8.516;2023-05-07T06:09:26;14.27;;;7.82;;
42098;SDS011;27758;55.900;8.516;2023-05-07T06:11:51;16.50;;;6.57;;
42098;SDS011;27758;55.900;8.516;2023-05-07T06:14:17;17.85;;;7.13;;
42098;SDS011;27758;55.900;8.516;2023-05-07T06:16:43;14.55;;;7.05;;
42098;SDS011;27758;55.900;8.516;2023-05-07T06:19:09;16.05;;;6.95;;
42098;SDS011;27758;55.900;8.516;2023-05-07T06:21:35;14.95;;;7.43;;
42098;SDS011;27758;55.900;8.516;2023-05-07T06:24:03;13.57;;;6.20;;
42098;SDS011;27758;55.900;8.516;2023-05-07T06:26:29;16.67;;;6.95;;
42098;SDS011;27758;55.900;8.516;2023-05-07T06:28:55;17.67;;;7.45;;
42098;SDS011;27758;55.900;8.516;2023-05-07T06:31:21;15.07;;;8.02;;
42098;SDS011;27758;55.900;8.516;2023-05-07T06:33:47;15.15;;;6.53;;
42098;SDS011;27758;55.900;8.516;2023-05-07T06:36:14;13.05;;;6.60;;
42098;SDS011;27758;55.900;8.516;2023-05-07T06:38:40;13.85;;;6.60;;
42098;SDS011;27758;55.900;8.516;2023-05-07T06:41:06;14.82;;;7.40;;
42098;SDS011;27758;55.900;8.516;2023-05-07T06:43:35;10.88;;;6.60;;
42098;SDS011;27758;55.900;8.516;2023-05-07T06:46:01;12.90;;;6.97;;
42098;SDS011;27758;55.900;8.516;2023-05-07T06:48:26;12.95;;;7.68;;
42098;SDS011;27758;55.900;8.516;2023-05-07T06:50:52;17.60;;;7.47;;
42098;SDS011;27758;55.900;8.516;2023-05-07T06:53:20;16.65;;;7.63;;
42098;SDS011;27758;55.900;8.516;2023-05-07T06:55:45;16.00;;;8.00;;
42098;SDS011;27758;55.900;8.516;2023-05-07T06:58:11;14.13;;;6.53;;
42098;SDS011;27758;55.900;8.516;2023-05-07T07:00:37;10.80;;;5.93;;
42098;SDS011;27758;55.900;8.516;2023-05-07T07:03:02;11.68;;;6.70;;
42098;SDS011;27758;55.900;8.516;2023-05-07T07:05:28;14.10;;;6.90;;
42098;SDS011;27758;55.900;8.516;2023-05-07T07:07:54;14.30;;;6.07;;
42098;SDS011;27758;55.900;8.516;2023-05-07T07:10:20;16.48;;;6.72;;
42098;SDS011;27758;55.900;8.516;2023-05-07T07:12:46;14.77;;;7.00;;
42098;SDS011;27758;55.900;8.516;2023-05-07T07:15:11;13.05;;;6.22;;
42098;SDS011;27758;55.900;8.516;2023-05-07T07:17:41;14.82;;;7.28;;
42098;SDS011;27758;55.900;8.516;2023-05-07T07:20:07;18.87;;;6.90;;
42098;SDS011;27758;55.900;8.516;2023-05-07T07:22:33;14.15;;;6.53;;
42098;SDS011;27758;55.900;8.516;2023-05-07T07:24:59;13.45;;;6.85;;
42098;SDS011;27758;55.900;8.516;2023-05-07T07:27:25;12.55;;;6.40;;
42098;SDS011;27758;55.900;8.516;2023-05-07T07:29:50;14.70;;;6.93;;
42098;SDS011;27758;55.900;8.516;2023-05-07T07:32:16;15.20;;;6.68;;
42098;SDS011;27758;55.900;8.516;2023-05-07T07:34:42;13.35;;;6.60;;
42098;SDS011;27758;55.900;8.516;2023-05-07T07:37:07;11.27;;;6.07;;
42098;SDS011;27758;55.900;8.516;2023-05-07T07:39:33;14.43;;;7.15;;
42098;SDS011;27758;55.900;8.516;2023-05-07T07:41:59;13.02;;;6.57;;
42098;SDS011;27758;55.900;8.516;2023-05-07T07:44:25;12.15;;;6.28;;
42098;SDS011;27758;55.900;8.516;2023-05-07T07:46:51;12.95;;;5.97;;
42098;SDS011;27758;55.900;8.516;2023-05-07T07:49:16;8.13;;;5.53;;
42098;SDS011;27758;55.900;8.516;2023-05-07T07:51:45;11.52;;;5.50;;
42098;SDS011;27758;55.900;8.516;2023-05-07T07:54:11;8.75;;;5.07;;
42098;SDS011;27758;55.900;8.516;2023-05-07T07:56:37;7.97;;;4.82;;
42098;SDS011;27758;55.900;8.516;2023-05-07T07:59:03;9.07;;;5.10;;
42098;SDS011;27758;55.900;8.516;2023-05-07T08:01:29;12.63;;;6.38;;
42098;SDS011;27758;55.900;8.516;2023-05-07T08:03:55;12.32;;;5.63;;
42098;SDS011;27758;55.900;8.516;2023-05-07T08:06:26;8.70;;;5.18;;
42098;SDS011;27758;55.900;8.516;2023-05-07T08:08:52;8.50;;;4.80;;
42098;SDS011;27758;55.900;8.516;2023-05-07T08:11:26;11.30;;;5.80;;
42098;SDS011;27758;55.900;8.516;2023-05-07T08:13:53;12.23;;;6.18;;
42098;SDS011;27758;55.900;8.516;2023-05-07T08:16:19;11.00;;;5.55;;
42098;SDS011;27758;55.900;8.516;2023-05-07T08:18:45;8.27;;;5.10;;
42098;SDS011;27758;55.900;8.516;2023-05-07T08:21:11;9.85;;;4.88;;
42098;SDS011;27758;55.900;8.516;2023-05-07T08:23:36;11.63;;;5.15;;
42098;SDS011;27758;55.900;8.516;2023-05-07T08:26:02;7.45;;;4.43;;
42098;SDS011;27758;55.900;8.516;2023-05-07T08:28:30;14.55;;;4.97;;
42098;SDS011;27758;55.900;8.516;2023-05-07T08:30:56;10.05;;;5.18;;
42098;SDS011;27758;55.900;8.516;2023-05-07T08:33:24;11.93;;;5.60;;
42098;SDS011;27758;55.900;8.516;2023-05-07T08:35:50;8.82;;;4.53;;
42098;SDS011;27758;55.900;8.516;2023-05-07T08:38:16;9.82;;;5.28;;
42098;SDS011;27758;55.900;8.516;2023-05-07T08:40:41;11.27;;;5.40;;
42098;SDS011;27758;55.900;8.516;2023-05-07T08:43:07;6.68;;;4.53;;
42098;SDS011;27758;55.900;8.516;2023-05-07T08:45:39;10.30;;;4.50;;
42098;SDS011;27758;55.900;8.516;2023-05-07T08:48:14;9.68;;;5.07;;
42098;SDS011;27758;55.900;8.516;2023-05-07T08:50:41;9.57;;;5.10;;
42098;SDS011;27758;55.900;8.516;2023-05-07T08:53:07;9.82;;;5.05;;
42098;SDS011;27758;55.900;8.516;2023-05-07T08:55:33;11.88;;;5.13;;
42098;SDS011;27758;55.900;8.516;2023-05-07T08:57:59;9.32;;;5.22;;
42098;SDS011;27758;55.900;8.516;2023-05-07T09:00:25;9.38;;;5.10;;
42098;SDS011;27758;55.900;8.516;2023-05-07T09:02:53;11.88;;;4.88;;
42098;SDS011;27758;55.900;8.516;2023-05-07T09:05:19;14.48;;;4.97;;
42098;SDS011;27758;55.900;8.516;2023-05-07T09:07:45;13.57;;;4.85;;
42098;SDS011;27758;55.900;8.516;2023-05-07T09:10:11;8.00;;;5.18;;
42098;SDS011;27758;55.900;8.516;2023-05-07T09:12:37;7.72;;;4.28;;
42098;SDS011;27758;55.900;8.516;2023-05-07T09:15:06;12.95;;;5.03;;
42098;SDS011;27758;55.900;8.516;2023-05-07T09:17:32;9.55;;;5.50;;
42098;SDS011;27758;55.900;8.516;2023-05-07T09:20:04;6.32;;;4.03;;
42098;SDS011;27758;55.900;8.516;2023-05-07T09:22:35;7.93;;;4.57;;
42098;SDS011;27758;55.900;8.516;2023-05-07T09:25:02;10.60;;;5.10;;
42098;SDS011;27758;55.900;8.516;2023-05-07T09:27:28;12.20;;;4.80;;
42098;SDS011;27758;55.900;8.516;2023-05-07T09:29:53;10.77;;;4.60;;
42098;SDS011;27758;55.900;8.516;2023-05-07T09:32:19;8.95;;;4.80;;
42098;SDS011;27758;55.900;8.516;2023-05-07T09:34:45;8.80;;;4.07;;
42098;SDS011;27758;55.900;8.516;2023-05-07T09:37:12;10.05;;;4.20;;
42098;SDS011;27758;55.900;8.516;2023-05-07T09:39:40;7.85;;;4.88;;
42098;SDS011;27758;55.900;8.516;2023-05-07T09:42:06;10.13;;;4.53;;
42098;SDS011;27758;55.900;8.516;2023-05-07T09:44:32;6.55;;;4.40;;
42098;SDS011;27758;55.900;8.516;2023-05-07T09:46:59;8.07;;;4.45;;
42098;SDS011;27758;55.900;8.516;2023-05-07T09:49:27;6.82;;;4.25;;
42098;SDS011;27758;55.900;8.516;2023-05-07T09:51:55;7.95;;;4.28;;
42098;SDS011;27758;55.900;8.516;2023-05-07T09:54:24;7.47;;;3.88;;
42098;SDS011;27758;55.900;8.516;2023-05-07T09:56:51;8.23;;;4.80;;
42098;SDS011;27758;55.900;8.516;2023-05-07T09:59:17;8.38;;;4.32;;
42098;SDS011;27758;55.900;8.516;2023-05-07T10:01:45;8.38;;;4.05;;
42098;SDS011;27758;55.900;8.516;2023-05-07T10:04:11;8.35;;;4.30;;
42098;SDS011;27758;55.900;8.516;2023-05-07T10:06:37;11.00;;;4.50;;
42098;SDS011;27758;55.900;8.516;2023-05-07T10:09:04;10.52;;;4.22;;
42098;SDS011;27758;55.900;8.516;2023-05-07T10:11:31;10.38;;;4.18;;
42098;SDS011;27758;55.900;8.516;2023-05-07T10:13:59;8.82;;;4.40;;
42098;SDS011;27758;55.900;8.516;2023-05-07T10:16:27;8.70;;;5.03;;
42098;SDS011;27758;55.900;8.516;2023-05-07T10:18:59;7.38;;;4.13;;
42098;SDS011;27758;55.900;8.516;2023-05-07T10:21:37;7.40;;;3.88;;
42098;SDS011;27758;55.900;8.516;2023-05-07T10:26:42;9.73;;;4.00;;
42098;SDS011;27758;55.900;8.516;2023-05-07T10:29:33;8.88;;;4.10;;
42098;SDS011;27758;55.900;8.516;2023-05-07T10:34:50;9.05;;;4.60;;
42098;SDS011;27758;55.900;8.516;2023-05-07T10:39:46;9.85;;;4.30;;
42098;SDS011;27758;55.900;8.516;2023-05-07T10:42:12;7.25;;;4.25;;
42098;SDS011;27758;55.900;8.516;2023-05-07T10:44:40;10.00;;;4.22;;
42098;SDS011;27758;55.900;8.516;2023-05-07T10:52:22;5.07;;;3.45;;
42098;SDS011;27758;55.900;8.516;2023-05-07T10:57:42;4.78;;;3.15;;
42098;SDS011;27758;55.900;8.516;2023-05-07T11:00:55;7.03;;;3.47;;
42098;SDS011;27758;55.900;8.516;2023-05-07T11:05:30;4.82;;;3.33;;
42098;SDS011;27758;55.900;8.516;2023-05-07T11:07:57;7.65;;;3.75;;
42098;SDS011;27758;55.900;8.516;2023-05-07T11:13:13;9.38;;;3.45;;
42098;SDS011;27758;55.900;8.516;2023-05-07T11:15:43;5.55;;;2.92;;
42098;SDS011;27758;55.900;8.516;2023-05-07T11:18:16;5.55;;;3.15;;
42098;SDS011;27758;55.900;8.516;2023-05-07T11:20:53;4.20;;;2.80;;
42098;SDS011;27758;55.900;8.516;2023-05-07T11:26:03;7.75;;;2.80;;
42098;SDS011;27758;55.900;8.516;2023-05-07T11:28:29;5.20;;;3.72;;
42098;SDS011;27758;55.900;8.516;2023-05-07T11:30:56;5.35;;;3.10;;
42098;SDS011;27758;55.900;8.516;2023-05-07T11:33:23;7.20;;;3.58;;
42098;SDS011;27758;55.900;8.516;2023-05-07T11:35:54;5.78;;;3.05;;
42098;SDS011;27758;55.900;8.516;2023-05-07T11:38:21;6.68;;;2.90;;
42098;SDS011;27758;55.900;8.516;2023-05-07T11:40:56;4.35;;;2.38;;
42098;SDS011;27758;55.900;8.516;2023-05-07T11:43:28;6.85;;;2.85;;
42098;SDS011;27758;55.900;8.516;2023-05-07T11:45:53;5.10;;;3.22;;
42098;SDS011;27758;55.900;8.516;2023-05-07T11:48:22;5.32;;;2.78;;
42098;SDS011;27758;55.900;8.516;2023-05-07T11:50:52;4.20;;;2.70;;
42098;SDS011;27758;55.900;8.516;2023-05-07T11:53:18;6.15;;;2.90;;
42098;SDS011;27758;55.900;8.516;2023-05-07T11:55:45;12.60;;;3.08;;
42098;SDS011;27758;55.900;8.516;2023-05-07T11:58:12;6.75;;;2.80;;
42098;SDS011;27758;55.900;8.516;2023-05-07T12:00:52;3.20;;;2.40;;
42098;SDS011;27758;55.900;8.516;2023-05-07T12:03:19;4.72;;;2.83;;
42098;SDS011;27758;55.900;8.516;2023-05-07T12:05:45;4.97;;;2.60;;
42098;SDS011;27758;55.900;8.516;2023-05-07T12:08:15;3.05;;;2.40;;
42098;SDS011;27758;55.900;8.516;2023-05-07T12:10:41;7.50;;;2.78;;
42098;SDS011;27758;55.900;8.516;2023-05-07T12:13:13;5.03;;;3.08;;
42098;SDS011;27758;55.900;8.516;2023-05-07T12:15:42;4.20;;;2.72;;
42098;SDS011;27758;55.900;8.516;2023-05-07T12:18:08;4.43;;;2.33;;
42098;SDS011;27758;55.900;8.516;2023-05-07T12:20:35;4.57;;;2.95;;
42098;SDS011;27758;55.900;8.516;2023-05-07T12:23:02;4.53;;;2.55;;
42098;SDS011;27758;55.900;8.516;2023-05-07T12:25:34;5.72;;;2.70;;
42098;SDS011;27758;55.900;8.516;2023-05-07T12:28:01;16.77;;;4.45;;
42098;SDS011;27758;55.900;8.516;2023-05-07T12:30:39;6.35;;;2.88;;
42098;SDS011;27758;55.900;8.516;2023-05-07T12:33:05;9.50;;;2.58;;
42098;SDS011;27758;55.900;8.516;2023-05-07T12:35:36;6.18;;;2.40;;
42098;SDS011;27758;55.900;8.516;2023-05-07T12:38:07;3.53;;;2.35;;
42098;SDS011;27758;55.900;8.516;2023-05-07T12:40:40;4.78;;;2.70;;
42098;SDS011;27758;55.900;8.516;2023-05-07T12:43:15;4.95;;;2.35;;
42098;SDS011;27758;55.900;8.516;2023-05-07T12:45:50;4.70;;;2.65;;
42098;SDS011;27758;55.900;8.516;2023-05-07T12:48:16;5.50;;;2.80;;
42098;SDS011;27758;55.900;8.516;2023-05-07T12:50:42;4.20;;;2.28;;
42098;SDS011;27758;55.900;8.516;2023-05-07T12:53:10;3.30;;;2.22;;
42098;SDS011;27758;55.900;8.516;2023-05-07T12:55:44;6.50;;;2.65;;
42098;SDS011;27758;55.900;8.516;2023-05-07T12:58:15;6.95;;;2.80;;
42098;SDS011;27758;55.900;8.516;2023-05-07T13:00:47;6.95;;;2.53;;
42098;SDS011;27758;55.900;8.516;2023-05-07T13:03:20;4.40;;;2.30;;
42098;SDS011;27758;55.900;8.516;2023-05-07T13:05:58;4.25;;;2.70;;
42098;SDS011;27758;55.900;8.516;2023-05-07T13:08:31;11.38;;;2.88;;
42098;SDS011;27758;55.900;8.516;2023-05-07T13:11:10;6.07;;;2.55;;
42098;SDS011;27758;55.900;8.516;2023-05-07T13:13:38;4.80;;;2.25;;
42098;SDS011;27758;55.900;8.516;2023-05-07T13:16:05;6.00;;;2.42;;
42098;SDS011;27758;55.900;8.516;2023-05-07T13:18:36;6.28;;;2.60;;
42098;SDS011;27758;55.900;8.516;2023-05-07T13:21:02;3.88;;;2.60;;
42098;SDS011;27758;55.900;8.516;2023-05-07T13:23:28;4.10;;;2.13;;
42098;SDS011;27758;55.900;8.516;2023-05-07T13:25:54;4.53;;;2.63;;
42098;SDS011;27758;55.900;8.516;2023-05-07T13:28:21;5.05;;;2.63;;
42098;SDS011;27758;55.900;8.516;2023-05-07T13:30:47;5.05;;;2.47;;
42098;SDS011;27758;55.900;8.516;2023-05-07T13:33:13;8.23;;;2.63;;
42098;SDS011;27758;55.900;8.516;2023-05-07T13:35:40;3.78;;;2.15;;
42098;SDS011;27758;55.900;8.516;2023-05-07T13:38:06;6.38;;;2.30;;
42098;SDS011;27758;55.900;8.516;2023-05-07T13:40:31;4.72;;;2.33;;
42098;SDS011;27758;55.900;8.516;2023-05-07T13:42:57;4.20;;;2.10;;
42098;SDS011;27758;55.900;8.516;2023-05-07T13:45:24;5.03;;;1.98;;
42098;SDS011;27758;55.900;8.516;2023-05-07T13:47:50;3.50;;;2.05;;
42098;SDS011;27758;55.900;8.516;2023-05-07T13:50:16;4.25;;;2.00;;
42098;SDS011;27758;55.900;8.516;2023-05-07T13:52:43;4.20;;;2.22;;
42098;SDS011;27758;55.900;8.516;2023-05-07T13:55:15;5.07;;;2.00;;
42098;SDS011;27758;55.900;8.516;2023-05-07T13:57:44;2.97;;;1.93;;
42098;SDS011;27758;55.900;8.516;2023-05-07T14:00:10;3.97;;;1.58;;
42098;SDS011;27758;55.900;8.516;2023-05-07T14:02:36;3.50;;;2.17;;
42098;SDS011;27758;55.900;8.516;2023-05-07T14:05:02;4.88;;;2.40;;
42098;SDS011;27758;55.900;8.516;2023-05-07T14:07:28;5.38;;;2.10;;
42098;SDS011;27758;55.900;8.516;2023-05-07T14:09:54;5.28;;;2.05;;
42098;SDS011;27758;55.900;8.516;2023-05-07T14:12:20;5.47;;;1.95;;
42098;SDS011;27758;55.900;8.516;2023-05-07T14:14:52;6.65;;;1.90;;
42098;SDS011;27758;55.900;8.516;2023-05-07T14:17:17;4.15;;;1.70;;
42098;SDS011;27758;55.900;8.516;2023-05-07T14:19:43;4.50;;;1.80;;
42098;SDS011;27758;55.900;8.516;2023-05-07T14:22:09;5.78;;;2.55;;
42098;SDS011;27758;55.900;8.516;2023-05-07T14:24:38;4.88;;;2.17;;
42098;SDS011;27758;55.900;8.516;2023-05-07T14:27:04;3.42;;;2.38;;
42098;SDS011;27758;55.900;8.516;2023-05-07T14:29:30;7.78;;;2.38;;
42098;SDS011;27758;55.900;8.516;2023-05-07T14:31:56;3.53;;;2.10;;
42098;SDS011;27758;55.900;8.516;2023-05-07T14:34:22;4.28;;;2.00;;
42098;SDS011;27758;55.900;8.516;2023-05-07T14:36:47;6.72;;;2.47;;
42098;SDS011;27758;55.900;8.516;2023-05-07T14:39:13;3.47;;;2.00;;
42098;SDS011;27758;55.900;8.516;2023-05-07T14:41:39;3.58;;;2.20;;
42098;SDS011;27758;55.900;8.516;2023-05-07T14:44:04;4.80;;;2.70;;
42098;SDS011;27758;55.900;8.516;2023-05-07T14:46:30;8.50;;;2.80;;
42098;SDS011;27758;55.900;8.516;2023-05-07T14:48:56;4.55;;;2.22;;
42098;SDS011;27758;55.900;8.516;2023-05-07T14:51:22;5.00;;;2.25;;
42098;SDS011;27758;55.900;8.516;2023-05-07T14:53:49;6.53;;;2.70;;
42098;SDS011;27758;55.900;8.516;2023-05-07T14:56:15;6.13;;;2.33;;
42098;SDS011;27758;55.900;8.516;2023-05-07T14:58:42;6.88;;;2.67;;
42098;SDS011;27758;55.900;8.516;2023-05-07T15:01:08;3.50;;;2.08;;
42098;SDS011;27758;55.900;8.516;2023-05-07T15:03:34;6.10;;;3.30;;